全部
Thunderbox Airport (Thunderbox, WA) YTHN 天氣
There is no TAF data available at YTHN. Showing TAF data for YLST (26 mi NW).
LER終端機場天氣預報(YTHN無資料)
| Date | Time (AWST) | Flight Rules | Wind Dir. | Speed | Type | Height AGL (ft) | Visibility | Remarks | ||||||
|---|---|---|---|---|---|---|---|---|---|---|---|---|---|---|
| 05-五月 | 20:00 | VFR | 110° | 12 kt | Clouds and Visibility are OK | >= 6 miles | ||||||||
| 05-五月 | 19:00 | VFR | 110° | 12 kt | Clouds and Visibility are OK | >= 6 miles | ||||||||
| 05-五月 | 18:00 | VFR | 110° | 12 kt | Clouds and Visibility are OK | >= 6 miles | ||||||||
| 05-五月 | 17:00 | VFR | 110° | 12 kt | Clouds and Visibility are OK | >= 6 miles | ||||||||
| 05-五月 | 16:00 | VFR | 110° | 12 kt | Clouds and Visibility are OK | >= 6 miles | ||||||||
| 05-五月 | 15:00 | VFR | 110° | 12 kt | Clouds and Visibility are OK | >= 6 miles | ||||||||
| 05-五月 | 14:00 | VFR | 110° | 12 kt | Clouds and Visibility are OK | >= 6 miles | ||||||||
| 05-五月 | 13:00 | VFR | 110° | 12 kt | Clouds and Visibility are OK | >= 6 miles | ||||||||
| 05-五月 | 12:00 | VFR | 80° | 12 kt | Clouds and Visibility are OK | >= 6 miles | ||||||||
There is no METAR data available at YTHN. Showing METAR data for YLST (26 mi NW).
LER近期METAR歷史資料(YTHN無資料)
| Date | Time (AWST) | Flight Rules | Wind Dir. | Speed | Type | Height AGL (ft) | Visibility | Temp (°C) | Temp (°F) | Dew Point (°C) | Dew Point (°F) | Rel. Humid. | Pressure | Density Altitude | Remarks |
|---|---|---|---|---|---|---|---|---|---|---|---|---|---|---|---|
| 05-五月 | 12:00 | VFR | 90° | 8 kt | 10000 meters | 19° | 66° | 6° | 42° | 43% | 1024 mb | 2,030 ft | |||
| 05-五月 | 11:00 | VFR | 70° | 9 kt | 10000 meters | 19° | 66° | 7° | 44° | 46% | 1025 mb | 2,000 ft | |||
| 05-五月 | 10:00 | VFR | 70° | 11 kt | 10000 meters | 18° | 64° | 7° | 44° | 49% | 1025 mb | 1,880 ft | |||
| 05-五月 | 09:00 | VFR | 70° | 13 kt | 10000 meters | 16° | 60° | 7° | 44° | 55% | 1026 mb | 1,611 ft | |||
| 05-五月 | 08:00 | VFR | 90° | 9 kt | 10000 meters | 13° | 55° | 8° | 46° | 72% | 1026 mb | 1,251 ft | |||
| 05-五月 | 07:00 | VFR | 80° | 4 kt | 10000 meters | 9° | 48° | 7° | 44° | 87% | 1025 mb | 800 ft | |||
| 05-五月 | 06:00 | VFR | 110° | 5 kt | 10000 meters | 9° | 48° | 7° | 44° | 87% | 1024 mb | 830 ft | |||
| 05-五月 | 05:00 | VFR | 100° | 5 kt | 10000 meters | 9° | 48° | 7° | 44° | 87% | 1024 mb | 830 ft | |||
| 05-五月 | 04:00 | VFR | 90° | 4 kt | 10000 meters | 9° | 48° | 7° | 44° | 87% | 1024 mb | 830 ft | |||
| 05-五月 | 03:00 | VFR | 110° | 6 kt | 10000 meters | 10° | 50° | 7° | 44° | 82% | 1024 mb | 950 ft | |||
| 05-五月 | 02:00 | VFR | 110° | 7 kt | 10000 meters | 11° | 51° | 7° | 44° | 76% | 1024 mb | 1,070 ft | |||
| 05-五月 | 01:00 | VFR | 120° | 6 kt | 10000 meters | 12° | 53° | 7° | 44° | 71% | 1024 mb | 1,190 ft | |||
| 05-五月 | 00:00 | VFR | 110° | 6 kt | 10000 meters | 12° | 53° | 6° | 42° | 67% | 1024 mb | 1,190 ft | |||
| 04-五月 | 23:00 | VFR | 120° | 6 kt | 10000 meters | 13° | 55° | 6° | 42° | 62% | 1024 mb | 1,310 ft | |||
| 04-五月 | 22:00 | VFR | 110° | 8 kt | 10000 meters | 14° | 57° | 6° | 42° | 58% | 1024 mb | 1,430 ft | |||
| 04-五月 | 21:00 | VFR | 110° | 6 kt | 10000 meters | 15° | 59° | 6° | 42° | 55% | 1024 mb | 1,550 ft | |||
| 04-五月 | 20:00 | VFR | 110° | 6 kt | 10000 meters | 15° | 59° | 6° | 42° | 55% | 1024 mb | 1,550 ft | |||
| 04-五月 | 19:00 | VFR | 110° | 5 kt | 10000 meters | 16° | 60° | 5° | 41° | 48% | 1024 mb | 1,670 ft | |||
| 04-五月 | 18:00 | VFR | 120° | 6 kt | 10000 meters | 18° | 64° | 4° | 39° | 39% | 1023 mb | 1,939 ft | |||
| 04-五月 | 17:00 | VFR | 120° | 9 kt | 10000 meters | 20° | 68° | 4° | 39° | 35% | 1022 mb | 2,209 ft | |||
| 04-五月 | 16:00 | VFR | 100° | 10 kt | 10000 meters | 21° | 69° | 4° | 39° | 33% | 1022 mb | 2,329 ft | |||
| 04-五月 | 15:00 | VFR | 100° | 8 kt | 10000 meters | 20° | 68° | 4° | 39° | 35% | 1022 mb | 2,209 ft | |||
| 04-五月 | 14:00 | VFR | 120° | 7 kt | 10000 meters | 20° | 68° | 5° | 41° | 37% | 1023 mb | 2,179 ft | |||
| 04-五月 | 13:00 | VFR | 100° | 10 kt | 10000 meters | 19° | 66° | 5° | 41° | 40% | 1023 mb | 2,059 ft |
登入
| 您的瀏覽器不支援. 升級您的瀏覽器 |
